createdAt,value
2022-10-21T00:00:40.443Z,13.00
2022-10-21T00:03:07.913Z,13.00
2022-10-21T00:05:35.029Z,13.00
2022-10-21T00:08:02.228Z,13.00
2022-10-21T00:10:29.456Z,13.00
2022-10-21T00:12:56.763Z,13.00
2022-10-21T00:15:24.034Z,13.00
2022-10-21T00:17:51.381Z,13.00
2022-10-21T00:20:19.027Z,13.00
2022-10-21T00:22:46.374Z,13.00
2022-10-21T00:25:13.661Z,13.00
2022-10-21T00:27:40.892Z,13.00
2022-10-21T00:30:09.037Z,13.00
2022-10-21T00:32:40.051Z,13.00
2022-10-21T00:35:07.814Z,13.00
2022-10-21T00:37:35.249Z,13.00
2022-10-21T00:40:02.583Z,12.90
2022-10-21T00:42:35.461Z,12.90
2022-10-21T00:45:05.705Z,12.90
2022-10-21T00:50:37.421Z,12.90
2022-10-21T00:53:11.203Z,12.80
2022-10-21T00:55:43.947Z,12.80
2022-10-21T00:58:11.312Z,12.80
2022-10-21T01:00:38.677Z,12.80
2022-10-21T01:03:07.110Z,12.90
2022-10-21T01:05:36.351Z,12.80
2022-10-21T01:08:03.747Z,12.80
2022-10-21T01:10:31.132Z,12.90
2022-10-21T01:13:33.626Z,12.90
2022-10-21T01:16:24.866Z,12.90
2022-10-21T01:19:02.114Z,12.90
2022-10-21T01:21:38.689Z,12.90
2022-10-21T01:24:24.850Z,12.90
2022-10-21T01:27:29.533Z,12.90
2022-10-21T01:30:16.698Z,13.00
2022-10-21T01:36:04.078Z,13.00
2022-10-21T01:38:31.294Z,13.00
2022-10-21T01:41:16.496Z,12.90
2022-10-21T01:43:55.504Z,12.90
2022-10-21T01:46:50.389Z,12.90
2022-10-21T01:49:22.892Z,12.90
2022-10-21T01:51:51.891Z,12.90
2022-10-21T01:54:28.970Z,12.90
2022-10-21T01:56:57.814Z,12.90
2022-10-21T01:59:29.106Z,12.90
2022-10-21T02:01:57.364Z,12.90
2022-10-21T02:04:26.825Z,12.90
2022-10-21T02:06:54.145Z,13.00
2022-10-21T02:09:21.480Z,13.00
2022-10-21T02:11:52.130Z,13.00
2022-10-21T02:14:25.015Z,13.00
2022-10-21T02:16:54.466Z,13.00
2022-10-21T02:19:21.943Z,13.00
2022-10-21T02:21:51.567Z,12.90
2022-10-21T02:24:36.450Z,12.90
2022-10-21T02:27:03.682Z,12.90
2022-10-21T02:29:36.188Z,12.90
2022-10-21T02:32:28.045Z,12.90
2022-10-21T02:35:24.394Z,12.90
2022-10-21T02:38:25.752Z,12.90
2022-10-21T02:41:01.824Z,12.90
2022-10-21T02:43:28.897Z,12.90
2022-10-21T02:46:01.882Z,12.90
2022-10-21T02:48:29.109Z,12.90
2022-10-21T02:50:56.344Z,12.90
2022-10-21T02:53:23.534Z,12.90
2022-10-21T02:55:50.588Z,12.90
2022-10-21T02:58:17.672Z,12.90
2022-10-21T03:00:45.033Z,12.90
2022-10-21T03:03:12.298Z,12.90
2022-10-21T03:05:39.499Z,12.90
2022-10-21T03:08:06.897Z,12.90
2022-10-21T03:10:34.144Z,12.80
2022-10-21T03:13:01.653Z,12.80
2022-10-21T03:15:28.857Z,12.80
2022-10-21T03:17:56.139Z,12.80
2022-10-21T03:20:23.214Z,12.80
2022-10-21T03:22:50.385Z,12.80
2022-10-21T03:25:17.680Z,12.80
2022-10-21T03:27:44.931Z,12.80
2022-10-21T03:30:12.402Z,12.80
2022-10-21T03:32:39.642Z,12.80
2022-10-21T03:35:07.819Z,12.80
2022-10-21T03:37:35.129Z,12.80
2022-10-21T03:40:02.593Z,12.70
2022-10-21T03:42:29.815Z,12.70
2022-10-21T03:44:56.967Z,12.70
2022-10-21T03:47:24.099Z,12.60
2022-10-21T03:49:51.331Z,12.70
2022-10-21T03:52:18.675Z,12.70
2022-10-21T03:54:45.783Z,12.70
2022-10-21T03:57:13.121Z,12.70
2022-10-21T03:59:40.377Z,12.70
2022-10-21T04:02:07.715Z,12.60
2022-10-21T04:04:34.969Z,12.60
2022-10-21T04:07:02.253Z,12.60
2022-10-21T04:09:29.281Z,12.60
2022-10-21T04:11:56.361Z,12.60
2022-10-21T04:14:23.730Z,12.60
2022-10-21T04:17:02.052Z,12.60
2022-10-21T04:19:29.712Z,12.60
2022-10-21T04:21:56.790Z,12.60
2022-10-21T04:24:24.000Z,12.70
2022-10-21T04:26:51.221Z,12.70
2022-10-21T04:29:18.567Z,12.70
2022-10-21T04:31:45.863Z,12.70
2022-10-21T04:34:13.143Z,12.70
2022-10-21T04:36:40.872Z,12.70
2022-10-21T04:39:08.377Z,12.70
2022-10-21T04:41:35.742Z,12.70
2022-10-21T04:44:03.962Z,12.70
2022-10-21T04:46:31.257Z,12.70
2022-10-21T04:48:58.304Z,12.70
2022-10-21T04:51:27.825Z,12.70
2022-10-21T04:53:55.235Z,12.70
2022-10-21T04:56:22.566Z,12.80
2022-10-21T04:58:49.935Z,12.80
2022-10-21T05:01:17.245Z,12.80
2022-10-21T05:03:44.488Z,12.80
2022-10-21T05:06:11.770Z,12.80
2022-10-21T05:08:38.987Z,12.80
2022-10-21T05:11:06.364Z,12.80
2022-10-21T05:13:33.969Z,12.80
2022-10-21T05:16:02.917Z,12.90
2022-10-21T05:18:31.041Z,12.90
2022-10-21T05:20:58.779Z,12.90
2022-10-21T05:23:26.960Z,12.90
2022-10-21T05:25:54.017Z,12.90
2022-10-21T05:28:21.894Z,12.90
2022-10-21T05:30:49.217Z,12.90
2022-10-21T05:33:16.570Z,12.90
2022-10-21T05:35:44.778Z,12.90
2022-10-21T05:38:11.825Z,12.90
2022-10-21T05:40:38.900Z,13.00
2022-10-21T05:43:05.859Z,13.00
2022-10-21T05:45:32.940Z,13.00
2022-10-21T05:47:59.934Z,13.10
2022-10-21T05:50:26.950Z,13.00
2022-10-21T05:52:58.640Z,13.10
2022-10-21T05:55:25.881Z,13.10
2022-10-21T05:57:52.993Z,13.10
2022-10-21T06:00:20.033Z,13.10
2022-10-21T06:02:47.095Z,13.10
2022-10-21T06:05:14.338Z,13.10
2022-10-21T06:07:41.624Z,13.10
2022-10-21T06:10:10.079Z,13.00
2022-10-21T06:12:37.048Z,13.10
2022-10-21T06:15:04.678Z,13.00
2022-10-21T06:17:31.760Z,13.10
2022-10-21T06:19:58.798Z,13.10
2022-10-21T06:22:25.996Z,13.10
2022-10-21T06:24:52.978Z,13.10
2022-10-21T06:27:20.496Z,13.10
2022-10-21T06:29:47.685Z,13.10
2022-10-21T06:32:15.242Z,13.10
2022-10-21T06:34:42.423Z,13.10
2022-10-21T06:37:09.539Z,13.10
2022-10-21T06:39:36.497Z,13.20
2022-10-21T06:42:03.654Z,13.20
2022-10-21T06:44:30.627Z,13.20
2022-10-21T06:46:57.676Z,13.20
2022-10-21T06:49:24.796Z,13.20
2022-10-21T06:51:52.147Z,13.30
2022-10-21T06:54:19.334Z,13.30
2022-10-21T06:56:46.416Z,13.30
2022-10-21T06:59:13.590Z,13.30
2022-10-21T07:01:59.079Z,13.30
2022-10-21T07:04:27.729Z,13.30
2022-10-21T07:06:55.186Z,13.30
2022-10-21T07:09:23.851Z,13.30
2022-10-21T07:11:51.218Z,13.30
2022-10-21T07:14:18.600Z,13.30
2022-10-21T07:16:45.913Z,13.40
2022-10-21T07:19:16.407Z,13.30
2022-10-21T07:21:44.828Z,13.40
2022-10-21T07:24:12.344Z,13.40
2022-10-21T07:26:40.247Z,13.40
2022-10-21T07:29:07.787Z,13.40
2022-10-21T07:31:38.061Z,13.40
2022-10-21T07:34:11.201Z,13.40
2022-10-21T07:36:44.072Z,13.50
2022-10-21T07:39:14.063Z,13.50
2022-10-21T07:41:46.641Z,13.60
2022-10-21T07:44:14.255Z,13.60
2022-10-21T07:46:42.667Z,13.60
2022-10-21T07:49:11.616Z,13.60
2022-10-21T07:51:39.987Z,13.70
2022-10-21T07:54:08.103Z,13.70
2022-10-21T07:56:47.439Z,13.70
2022-10-21T07:59:16.561Z,13.70
2022-10-21T08:01:45.981Z,13.80
2022-10-21T08:04:16.235Z,13.80
2022-10-21T08:06:44.774Z,13.80
2022-10-21T08:09:13.351Z,13.80
2022-10-21T08:11:40.777Z,13.80
2022-10-21T08:14:09.878Z,13.80
2022-10-21T08:16:37.717Z,13.80
2022-10-21T08:19:06.269Z,13.80
2022-10-21T08:21:33.487Z,13.80
2022-10-21T08:24:03.481Z,13.80
2022-10-21T08:26:30.765Z,13.90
2022-10-21T08:31:25.709Z,13.80
2022-10-21T08:33:52.826Z,13.80
2022-10-21T08:36:22.294Z,13.70
2022-10-21T08:38:49.530Z,13.70
2022-10-21T08:41:31.596Z,13.70
2022-10-21T08:44:25.644Z,13.70
2022-10-21T08:46:59.786Z,13.70
2022-10-21T08:49:31.950Z,13.70
2022-10-21T08:52:05.865Z,13.70
2022-10-21T08:54:51.886Z,13.60
2022-10-21T08:57:20.026Z,13.70
2022-10-21T08:59:47.489Z,13.70
2022-10-21T09:02:17.217Z,13.70
2022-10-21T09:04:48.653Z,13.70
2022-10-21T09:08:03.956Z,13.70
2022-10-21T09:10:54.911Z,13.70
2022-10-21T09:14:01.073Z,13.70
2022-10-21T09:16:34.110Z,13.70
2022-10-21T09:19:10.027Z,13.80
2022-10-21T09:22:16.394Z,13.80
2022-10-21T09:25:22.349Z,13.80
2022-10-21T09:27:56.099Z,13.80
2022-10-21T09:30:24.977Z,13.90
2022-10-21T09:32:59.987Z,13.80
2022-10-21T09:35:47.021Z,13.90
2022-10-21T09:38:27.442Z,13.90
2022-10-21T09:41:01.605Z,13.90
2022-10-21T09:43:28.839Z,13.90
2022-10-21T09:45:57.094Z,13.90
2022-10-21T09:49:14.343Z,13.90
2022-10-21T09:51:37.969Z,13.90
2022-10-21T09:54:04.915Z,13.90
2022-10-21T09:56:40.962Z,13.90
2022-10-21T09:59:14.018Z,13.80
2022-10-21T10:01:43.414Z,13.80
2022-10-21T10:04:31.920Z,13.90
2022-10-21T10:07:19.483Z,13.80
2022-10-21T10:09:48.549Z,13.80
2022-10-21T10:12:26.803Z,13.90
2022-10-21T10:14:53.981Z,13.80
2022-10-21T10:17:40.001Z,13.90
2022-10-21T10:20:16.859Z,13.90
2022-10-21T10:22:58.470Z,13.90
2022-10-21T10:25:33.930Z,13.90
2022-10-21T10:28:15.851Z,14.00
2022-10-21T10:30:42.856Z,14.00
2022-10-21T10:33:17.856Z,14.00
2022-10-21T10:35:53.767Z,14.10
2022-10-21T10:38:45.404Z,14.10
2022-10-21T10:41:16.264Z,14.20
2022-10-21T10:43:53.883Z,14.20
2022-10-21T10:46:31.242Z,14.20
2022-10-21T10:49:21.502Z,14.20
2022-10-21T10:52:04.544Z,14.20
2022-10-21T10:54:31.939Z,14.20
2022-10-21T10:57:03.922Z,14.20
2022-10-21T10:59:30.918Z,14.30
2022-10-21T11:02:12.379Z,14.30
2022-10-21T11:05:00.349Z,14.30
2022-10-21T11:08:08.598Z,14.40
2022-10-21T11:10:46.284Z,14.40
2022-10-21T11:13:18.666Z,14.50
2022-10-21T11:16:00.067Z,14.50
2022-10-21T11:18:47.564Z,14.50
2022-10-21T11:21:42.268Z,14.50
2022-10-21T11:24:17.041Z,14.50
2022-10-21T11:26:54.488Z,14.60
2022-10-21T11:29:29.921Z,14.70
2022-10-21T11:32:19.334Z,14.80
2022-10-21T11:35:08.907Z,14.90
2022-10-21T11:37:41.840Z,15.10
2022-10-21T11:40:19.745Z,15.30
2022-10-21T11:42:52.028Z,15.30
2022-10-21T11:45:54.467Z,15.40
2022-10-21T11:48:38.794Z,15.50
2022-10-21T11:51:31.168Z,15.60
2022-10-21T11:54:13.289Z,15.50
2022-10-21T11:56:56.008Z,15.60
2022-10-21T11:59:39.542Z,15.70
2022-10-21T12:02:16.933Z,15.70
2022-10-21T12:05:11.738Z,15.90
2022-10-21T12:07:42.968Z,16.00
2022-10-21T12:10:21.216Z,16.20
2022-10-21T12:12:51.523Z,16.40
2022-10-21T12:15:22.795Z,16.80
2022-10-21T12:17:50.962Z,17.20
2022-10-21T12:20:27.154Z,17.50
2022-10-21T12:23:03.775Z,18.00
2022-10-21T12:25:44.096Z,17.80
2022-10-21T12:28:21.941Z,17.90
2022-10-21T12:31:13.326Z,18.20
2022-10-21T12:33:45.734Z,18.50
2022-10-21T12:36:21.068Z,18.90
2022-10-21T12:38:54.358Z,19.00
2022-10-21T12:41:26.176Z,18.90
2022-10-21T12:44:18.044Z,18.70
2022-10-21T12:46:53.807Z,18.40
2022-10-21T12:49:33.835Z,18.30
2022-10-21T12:52:11.685Z,18.30
2022-10-21T12:54:49.748Z,18.30
2022-10-21T12:57:30.656Z,18.50
2022-10-21T13:00:28.116Z,18.50
2022-10-21T13:03:10.469Z,18.30
2022-10-21T13:05:37.448Z,18.40
2022-10-21T13:08:28.615Z,18.60
2022-10-21T13:11:06.894Z,18.90
2022-10-21T13:13:38.345Z,19.00
2022-10-21T13:16:20.343Z,18.80
2022-10-21T13:19:15.116Z,18.50
2022-10-21T13:21:49.650Z,18.20
2022-10-21T13:24:24.285Z,18.10
2022-10-21T13:26:59.578Z,18.00
2022-10-21T13:29:38.756Z,18.00
2022-10-21T13:32:36.443Z,17.90
2022-10-21T13:35:21.631Z,17.70
2022-10-21T13:38:03.608Z,17.70
2022-10-21T13:40:45.140Z,17.60
2022-10-21T13:43:17.730Z,17.50
2022-10-21T13:45:50.758Z,17.60
2022-10-21T13:48:24.438Z,17.50
2022-10-21T13:50:56.224Z,17.50
2022-10-21T13:53:36.635Z,17.60
2022-10-21T13:56:07.313Z,17.70
2022-10-21T13:58:41.352Z,18.00
2022-10-21T14:01:12.477Z,18.30
2022-10-21T14:03:40.783Z,18.50
2022-10-21T14:06:09.772Z,18.80
2022-10-21T14:08:44.001Z,18.90
2022-10-21T14:11:43.622Z,19.20
2022-10-21T14:14:15.401Z,19.40
2022-10-21T14:16:48.662Z,19.40
2022-10-21T14:19:20.097Z,19.70
2022-10-21T14:21:52.621Z,20.00
2022-10-21T14:24:37.053Z,20.20
2022-10-21T14:27:04.331Z,20.30
2022-10-21T14:29:35.178Z,20.00
2022-10-21T14:32:03.620Z,19.90
2022-10-21T14:34:34.004Z,19.70
2022-10-21T14:37:09.301Z,19.70
2022-10-21T14:39:39.626Z,19.40
2022-10-21T14:42:17.673Z,19.30
2022-10-21T14:44:46.030Z,18.90
2022-10-21T14:47:26.315Z,18.50
2022-10-21T14:49:59.172Z,18.30
2022-10-21T14:52:44.717Z,18.10
2022-10-21T14:55:15.881Z,18.00
2022-10-21T14:57:48.446Z,17.90
2022-10-21T15:00:34.878Z,17.80
2022-10-21T15:03:02.541Z,17.60
2022-10-21T15:05:48.767Z,17.50
2022-10-21T15:08:22.761Z,17.40
2022-10-21T15:11:00.454Z,17.30
2022-10-21T15:13:27.528Z,17.20
2022-10-21T15:15:57.030Z,17.10
2022-10-21T15:18:32.304Z,17.10
2022-10-21T15:21:03.483Z,17.10
2022-10-21T15:23:52.251Z,17.00
2022-10-21T15:26:24.545Z,17.00
2022-10-21T15:28:53.294Z,16.90
2022-10-21T15:31:23.673Z,16.80
2022-10-21T15:33:52.830Z,16.80
2022-10-21T15:36:20.768Z,16.70
2022-10-21T15:38:48.461Z,16.80
2022-10-21T15:41:26.299Z,16.80
2022-10-21T15:44:05.251Z,16.70
2022-10-21T15:46:46.162Z,16.70
2022-10-21T15:49:18.776Z,16.60
2022-10-21T15:51:46.625Z,16.60
2022-10-21T15:54:15.452Z,16.50
2022-10-21T15:56:44.501Z,16.40
2022-10-21T15:59:17.941Z,16.30
2022-10-21T16:01:45.494Z,16.30
2022-10-21T16:04:12.909Z,16.20
2022-10-21T16:06:45.752Z,16.10
2022-10-21T16:09:19.704Z,16.00
2022-10-21T16:12:01.257Z,16.00
2022-10-21T16:14:30.389Z,15.90
2022-10-21T16:16:58.782Z,15.90
2022-10-21T16:19:26.784Z,15.80
2022-10-21T16:21:53.834Z,15.70
2022-10-21T16:24:20.909Z,15.70
2022-10-21T16:26:49.451Z,15.60
2022-10-21T16:29:24.765Z,15.50
2022-10-21T16:31:52.091Z,15.50
2022-10-21T16:34:19.624Z,15.40
2022-10-21T16:36:46.811Z,15.30
2022-10-21T16:39:19.632Z,15.30
2022-10-21T16:41:46.651Z,15.30
2022-10-21T16:44:14.147Z,15.20
2022-10-21T16:46:46.162Z,15.20
2022-10-21T16:49:15.654Z,15.10
2022-10-21T16:51:46.462Z,15.10
2022-10-21T16:54:14.100Z,15.00
2022-10-21T16:56:41.795Z,15.00
2022-10-21T16:59:08.811Z,14.90
2022-10-21T17:01:35.969Z,14.90
2022-10-21T17:04:03.082Z,14.80
2022-10-21T17:06:30.317Z,14.80
2022-10-21T17:08:58.182Z,14.80
2022-10-21T17:11:38.303Z,14.70
2022-10-21T17:14:07.376Z,14.70
2022-10-21T17:16:34.446Z,14.60
2022-10-21T17:19:01.615Z,14.60
2022-10-21T17:21:31.331Z,14.60
2022-10-21T17:24:00.012Z,14.70
2022-10-21T17:26:27.436Z,14.60
2022-10-21T17:28:54.750Z,14.60
2022-10-21T17:31:25.130Z,14.50
2022-10-21T17:33:53.564Z,14.50
2022-10-21T17:36:20.912Z,14.40
2022-10-21T17:38:48.162Z,14.50
2022-10-21T17:41:18.802Z,14.40
2022-10-21T17:43:45.934Z,14.40
2022-10-21T17:50:00.400Z,14.30
2022-10-21T17:52:27.529Z,14.30
2022-10-21T17:54:54.822Z,14.30
2022-10-21T17:57:23.705Z,14.30
2022-10-21T17:59:53.441Z,14.30
2022-10-21T18:02:20.956Z,14.20
2022-10-21T18:04:48.431Z,14.20
2022-10-21T18:07:17.900Z,14.20
2022-10-21T18:09:45.247Z,14.20
2022-10-21T18:12:13.882Z,14.10
2022-10-21T18:14:41.216Z,14.10
2022-10-21T18:17:08.820Z,14.10
2022-10-21T18:19:36.539Z,14.10
2022-10-21T18:22:04.346Z,14.00
2022-10-21T18:24:31.842Z,14.00
2022-10-21T18:26:59.113Z,14.00
2022-10-21T18:29:26.400Z,14.00
2022-10-21T18:31:53.628Z,14.00
2022-10-21T18:34:20.837Z,14.00
2022-10-21T18:36:48.754Z,14.00
2022-10-21T18:39:16.198Z,14.00
2022-10-21T18:41:43.558Z,14.00
2022-10-21T18:44:13.646Z,14.00
2022-10-21T18:46:43.051Z,14.00
2022-10-21T18:49:15.183Z,13.90
2022-10-21T18:51:42.685Z,13.80
2022-10-21T18:54:11.301Z,13.70
2022-10-21T18:56:38.516Z,13.60
2022-10-21T18:59:06.062Z,13.70
2022-10-21T19:01:33.396Z,13.60
2022-10-21T19:04:01.099Z,13.70
2022-10-21T19:06:36.708Z,13.60
2022-10-21T19:09:08.077Z,13.50
2022-10-21T19:11:35.483Z,13.40
2022-10-21T19:14:03.528Z,13.40
2022-10-21T19:16:30.871Z,13.40
2022-10-21T19:18:58.350Z,13.30
2022-10-21T19:21:25.788Z,13.30
2022-10-21T19:23:53.769Z,13.20
2022-10-21T19:26:23.176Z,13.20
2022-10-21T19:28:51.062Z,13.10
2022-10-21T19:31:21.218Z,13.10
2022-10-21T19:33:48.582Z,13.00
2022-10-21T19:36:15.687Z,13.00
2022-10-21T19:38:44.746Z,13.10
2022-10-21T19:41:16.027Z,13.00
2022-10-21T19:43:43.898Z,12.90
2022-10-21T19:46:18.914Z,12.90
2022-10-21T19:48:49.006Z,12.90
2022-10-21T19:51:21.231Z,12.90
2022-10-21T19:53:51.116Z,12.80
2022-10-21T19:56:23.742Z,12.90
2022-10-21T19:58:55.812Z,13.00
2022-10-21T20:01:25.536Z,13.10
2022-10-21T20:03:54.236Z,13.20
2022-10-21T20:06:25.365Z,13.20
2022-10-21T20:08:58.669Z,13.20
2022-10-21T20:11:26.799Z,13.20
2022-10-21T20:13:55.887Z,13.20
2022-10-21T20:16:26.924Z,13.20
2022-10-21T20:18:58.539Z,13.30
2022-10-21T20:21:26.023Z,13.20
2022-10-21T20:23:53.991Z,13.30
2022-10-21T20:26:22.768Z,13.30
2022-10-21T20:28:51.269Z,13.30
2022-10-21T20:31:18.768Z,13.30
2022-10-21T20:33:50.194Z,13.30
2022-10-21T20:36:25.795Z,13.20
2022-10-21T20:38:54.813Z,13.20
2022-10-21T20:41:26.166Z,13.10
2022-10-21T20:43:55.406Z,13.00
2022-10-21T20:46:25.694Z,13.00
2022-10-21T20:48:54.460Z,13.00
2022-10-21T20:51:26.225Z,12.90
2022-10-21T20:54:00.127Z,12.90
2022-10-21T20:56:30.167Z,12.90
2022-10-21T20:58:59.843Z,12.80
2022-10-21T21:01:31.261Z,12.80
2022-10-21T21:04:01.593Z,12.80
2022-10-21T21:06:31.616Z,12.80
2022-10-21T21:09:38.118Z,12.80
2022-10-21T21:11:47.596Z,12.80
2022-10-21T21:14:14.840Z,12.80
2022-10-21T21:16:42.142Z,12.70
2022-10-21T21:19:12.266Z,12.70
2022-10-21T21:21:40.448Z,12.70
2022-10-21T21:24:07.974Z,12.70
2022-10-21T21:26:39.772Z,12.70
2022-10-21T21:29:10.284Z,12.70
2022-10-21T21:31:41.120Z,12.70
2022-10-21T21:34:09.022Z,12.60
2022-10-21T21:36:37.005Z,12.60
2022-10-21T21:39:05.914Z,12.50
2022-10-21T21:41:33.688Z,12.50
2022-10-21T21:44:00.871Z,12.40
2022-10-21T21:46:28.159Z,12.40
2022-10-21T21:49:04.063Z,12.40
2022-10-21T21:51:34.556Z,12.40
2022-10-21T21:54:02.136Z,12.40
2022-10-21T21:56:29.417Z,12.40
2022-10-21T21:58:58.230Z,12.40
2022-10-21T22:01:30.226Z,12.40
2022-10-21T22:03:58.190Z,12.40
2022-10-21T22:06:28.728Z,12.30
2022-10-21T22:08:56.127Z,12.30
2022-10-21T22:11:25.321Z,12.30
2022-10-21T22:13:53.031Z,12.20
2022-10-21T22:16:22.395Z,12.20
2022-10-21T22:18:49.615Z,12.20
2022-10-21T22:21:18.868Z,12.20
2022-10-21T22:23:47.686Z,12.20
2022-10-21T22:26:15.783Z,12.20
2022-10-21T22:28:43.842Z,12.30
2022-10-21T22:31:13.848Z,12.30
2022-10-21T22:33:41.657Z,12.30
2022-10-21T22:36:10.000Z,12.30
2022-10-21T22:38:37.130Z,12.30
2022-10-21T22:41:08.582Z,12.30
2022-10-21T22:43:38.563Z,12.40
2022-10-21T22:46:28.856Z,12.50
2022-10-21T22:48:52.681Z,12.50
2022-10-21T22:51:19.951Z,12.40
2022-10-21T22:53:53.336Z,12.30
2022-10-21T22:56:23.693Z,12.30
2022-10-21T22:58:50.827Z,12.20
2022-10-21T23:01:17.953Z,12.20
2022-10-21T23:03:45.174Z,12.10
2022-10-21T23:06:12.349Z,12.20
2022-10-21T23:08:39.482Z,12.20
2022-10-21T23:11:06.635Z,12.30
2022-10-21T23:13:34.032Z,12.30
2022-10-21T23:16:01.134Z,12.30
2022-10-21T23:18:28.307Z,12.30
2022-10-21T23:20:55.474Z,12.30
2022-10-21T23:23:22.533Z,12.30
2022-10-21T23:25:49.662Z,12.40
2022-10-21T23:30:45.578Z,12.40
2022-10-21T23:33:13.867Z,12.40
2022-10-21T23:35:41.288Z,12.30
2022-10-21T23:38:08.439Z,12.30
2022-10-21T23:40:35.852Z,12.30
2022-10-21T23:43:03.164Z,12.30
2022-10-21T23:45:30.296Z,12.20
2022-10-21T23:47:57.334Z,12.20
2022-10-21T23:50:24.414Z,12.20
2022-10-21T23:52:51.463Z,12.20
2022-10-21T23:55:18.759Z,12.30
2022-10-21T23:57:46.221Z,12.30
